createdAt,value
2023-01-27T00:01:23.680Z,16.77
2023-01-27T00:03:51.268Z,17.23
2023-01-27T00:06:18.245Z,18.20
2023-01-27T00:08:45.254Z,17.57
2023-01-27T00:11:30.727Z,16.93
2023-01-27T00:13:57.726Z,16.80
2023-01-27T00:16:24.785Z,18.07
2023-01-27T00:18:51.779Z,17.50
2023-01-27T00:21:37.704Z,17.57
2023-01-27T00:24:23.521Z,17.80
2023-01-27T00:26:50.565Z,17.40
2023-01-27T00:29:17.556Z,18.00
2023-01-27T00:32:03.395Z,18.60
2023-01-27T00:34:30.391Z,18.70
2023-01-27T00:36:57.469Z,18.60
2023-01-27T00:39:24.435Z,19.47
2023-01-27T00:41:51.548Z,17.97
2023-01-27T00:44:18.599Z,17.27
2023-01-27T00:46:45.576Z,18.43
2023-01-27T00:49:13.515Z,18.47
2023-01-27T00:51:40.756Z,18.07
2023-01-27T00:54:08.007Z,18.33
2023-01-27T00:56:36.017Z,17.63
2023-01-27T00:59:03.776Z,18.80
2023-01-27T01:01:31.098Z,19.33
2023-01-27T01:04:01.277Z,17.27
2023-01-27T01:06:28.482Z,18.20
2023-01-27T01:08:57.934Z,17.70
2023-01-27T01:11:25.121Z,18.47
2023-01-27T01:13:54.826Z,19.10
2023-01-27T01:16:24.987Z,17.00
2023-01-27T01:18:52.071Z,19.77
2023-01-27T01:21:19.060Z,18.80
2023-01-27T01:23:46.817Z,18.73
2023-01-27T01:26:16.724Z,18.20
2023-01-27T01:28:45.976Z,17.67
2023-01-27T01:31:17.478Z,17.83
2023-01-27T01:33:44.784Z,19.77
2023-01-27T01:36:21.766Z,18.83
2023-01-27T01:38:49.207Z,19.03
2023-01-27T01:41:20.620Z,18.57
2023-01-27T01:43:49.452Z,18.13
2023-01-27T01:46:16.908Z,18.20
2023-01-27T01:48:54.828Z,18.87
2023-01-27T01:51:52.344Z,19.17
2023-01-27T01:54:38.870Z,18.57
2023-01-27T01:57:12.615Z,17.90
2023-01-27T01:59:48.843Z,18.37
2023-01-27T02:02:22.247Z,19.33
2023-01-27T02:05:00.651Z,18.40
2023-01-27T02:07:47.806Z,18.73
2023-01-27T02:10:15.423Z,17.33
2023-01-27T02:12:42.510Z,17.23
2023-01-27T02:15:11.813Z,18.93
2023-01-27T02:17:39.158Z,17.60
2023-01-27T02:20:36.477Z,17.90
2023-01-27T02:23:18.200Z,18.67
2023-01-27T02:26:35.959Z,18.50
2023-01-27T02:29:13.522Z,18.77
2023-01-27T02:31:41.266Z,18.43
2023-01-27T02:34:18.093Z,19.07
2023-01-27T02:36:55.234Z,19.13
2023-01-27T02:39:29.735Z,20.03
2023-01-27T02:41:58.690Z,19.33
2023-01-27T02:44:25.764Z,20.07
2023-01-27T02:46:52.830Z,19.97
2023-01-27T02:49:19.837Z,20.00
2023-01-27T02:51:46.835Z,20.07
2023-01-27T02:54:13.937Z,21.40
2023-01-27T02:56:40.937Z,20.53
2023-01-27T02:59:07.971Z,19.33
2023-01-27T03:01:35.002Z,18.50
2023-01-27T03:04:02.441Z,18.97
2023-01-27T03:06:29.446Z,18.70
2023-01-27T03:08:56.518Z,17.47
2023-01-27T03:11:42.256Z,18.77
2023-01-27T03:14:09.956Z,18.33
2023-01-27T03:16:55.410Z,18.50
2023-01-27T03:19:22.394Z,17.07
2023-01-27T03:21:52.816Z,16.30
2023-01-27T03:24:20.723Z,15.90
2023-01-27T03:26:48.043Z,15.87
2023-01-27T03:29:34.135Z,16.17
2023-01-27T03:32:01.135Z,14.37
2023-01-27T03:34:28.116Z,14.83
2023-01-27T03:37:13.696Z,15.43
2023-01-27T03:39:59.428Z,15.43
2023-01-27T03:42:45.190Z,13.60
2023-01-27T03:45:30.841Z,14.53
2023-01-27T03:47:57.820Z,15.23
2023-01-27T03:50:37.775Z,15.07
2023-01-27T03:53:05.886Z,16.40
2023-01-27T03:55:35.605Z,16.33
2023-01-27T03:58:18.361Z,17.00
2023-01-27T04:00:51.616Z,17.07
2023-01-27T04:03:38.502Z,16.80
2023-01-27T04:06:31.384Z,16.80
2023-01-27T04:08:59.296Z,16.77
2023-01-27T04:11:45.331Z,17.60
2023-01-27T04:14:13.797Z,16.57
2023-01-27T04:16:40.792Z,16.40
2023-01-27T04:19:10.558Z,17.60
2023-01-27T04:21:37.969Z,17.67
2023-01-27T04:24:08.815Z,17.90
2023-01-27T04:26:36.052Z,17.30
2023-01-27T04:29:04.231Z,17.80
2023-01-27T04:31:32.736Z,17.07
2023-01-27T04:33:59.974Z,16.37
2023-01-27T04:36:27.003Z,18.33
2023-01-27T04:38:54.001Z,17.90
2023-01-27T04:41:20.967Z,16.33
2023-01-27T04:43:48.218Z,17.73
2023-01-27T04:46:15.256Z,17.23
2023-01-27T04:48:42.290Z,17.40
2023-01-27T04:51:09.338Z,17.77
2023-01-27T04:53:36.436Z,16.57
2023-01-27T04:56:22.639Z,16.90
2023-01-27T04:58:49.943Z,17.37
2023-01-27T05:01:17.039Z,18.03
2023-01-27T05:03:44.310Z,18.00
2023-01-27T05:06:12.156Z,17.70
2023-01-27T05:08:39.491Z,17.07
2023-01-27T05:11:07.148Z,17.50
2023-01-27T05:13:34.405Z,17.50
2023-01-27T05:16:17.613Z,18.27
2023-01-27T05:18:48.643Z,17.77
2023-01-27T05:21:19.799Z,17.07
2023-01-27T05:23:47.679Z,18.53
2023-01-27T05:26:18.606Z,16.87
2023-01-27T05:28:47.597Z,19.67
2023-01-27T05:31:22.233Z,18.60
2023-01-27T05:33:54.954Z,19.50
2023-01-27T05:36:24.831Z,19.03
2023-01-27T05:38:53.191Z,19.87
2023-01-27T05:41:20.997Z,18.70
2023-01-27T05:43:53.865Z,20.47
2023-01-27T05:46:27.831Z,19.27
2023-01-27T05:48:58.933Z,20.97
2023-01-27T05:51:30.207Z,20.27
2023-01-27T05:53:57.531Z,19.47
2023-01-27T05:56:26.530Z,19.90
2023-01-27T05:58:58.354Z,18.43
2023-01-27T06:01:34.555Z,20.00
2023-01-27T06:04:02.015Z,19.03
2023-01-27T06:06:31.641Z,20.03
2023-01-27T06:09:00.172Z,20.60
2023-01-27T06:11:27.714Z,20.27
2023-01-27T06:13:54.965Z,20.17
2023-01-27T06:16:23.159Z,21.23
2023-01-27T06:18:50.295Z,20.07
2023-01-27T06:21:18.333Z,20.27
2023-01-27T06:23:45.305Z,21.53
2023-01-27T06:26:19.320Z,22.03
2023-01-27T06:28:47.230Z,22.50
2023-01-27T06:31:21.987Z,22.13
2023-01-27T06:33:50.814Z,24.17
2023-01-27T06:36:22.094Z,23.50
2023-01-27T06:38:50.182Z,23.10
2023-01-27T06:41:17.564Z,23.27
2023-01-27T06:43:44.629Z,24.97
2023-01-27T06:46:12.281Z,24.63
2023-01-27T06:48:39.396Z,25.00
2023-01-27T06:51:07.015Z,24.57
2023-01-27T06:53:34.926Z,27.23
2023-01-27T06:56:02.350Z,28.63
2023-01-27T06:58:29.694Z,28.63
2023-01-27T07:00:57.086Z,27.47
2023-01-27T07:03:24.635Z,28.30
2023-01-27T07:05:53.046Z,30.90
2023-01-27T07:08:20.135Z,27.80
2023-01-27T07:10:47.139Z,30.03
2023-01-27T07:13:15.358Z,29.50
2023-01-27T07:15:42.601Z,29.57
2023-01-27T07:18:14.355Z,29.90
2023-01-27T07:20:42.380Z,32.87
2023-01-27T07:23:10.147Z,30.27
2023-01-27T07:25:37.486Z,31.60
2023-01-27T07:28:05.463Z,31.30
2023-01-27T07:30:36.164Z,32.73
2023-01-27T07:33:08.806Z,30.77
2023-01-27T07:35:38.202Z,31.30
2023-01-27T07:38:06.905Z,32.53
2023-01-27T07:40:35.053Z,32.97
2023-01-27T07:43:03.526Z,32.23
2023-01-27T07:45:31.253Z,31.70
2023-01-27T07:48:03.980Z,33.30
2023-01-27T07:50:31.467Z,31.77
2023-01-27T07:53:05.695Z,32.20
2023-01-27T07:55:33.810Z,31.37
2023-01-27T07:58:01.179Z,31.43
2023-01-27T08:00:29.099Z,31.50
2023-01-27T08:02:57.665Z,31.90
2023-01-27T08:05:26.278Z,31.60
2023-01-27T08:07:57.646Z,33.80
2023-01-27T08:10:25.664Z,29.20
2023-01-27T08:12:52.813Z,29.37
2023-01-27T08:15:19.904Z,29.67
2023-01-27T08:17:58.097Z,30.70
2023-01-27T08:20:27.928Z,31.07
2023-01-27T08:22:55.292Z,29.13
2023-01-27T08:25:23.013Z,31.37
2023-01-27T08:27:52.905Z,30.67
2023-01-27T08:30:20.294Z,28.50
2023-01-27T08:32:47.936Z,27.60
2023-01-27T08:35:15.142Z,28.67
2023-01-27T08:37:42.219Z,29.23
2023-01-27T08:40:10.516Z,28.43
2023-01-27T08:42:37.742Z,29.17
2023-01-27T08:45:05.320Z,30.10
2023-01-27T08:47:32.359Z,28.80
2023-01-27T08:49:59.604Z,31.40
2023-01-27T08:52:27.724Z,29.60
2023-01-27T08:54:54.771Z,29.10
2023-01-27T08:57:21.786Z,30.43
2023-01-27T08:59:48.779Z,29.90
2023-01-27T09:02:15.772Z,28.80
2023-01-27T09:04:45.249Z,27.90
2023-01-27T09:07:12.399Z,28.43
2023-01-27T09:09:39.479Z,27.70
2023-01-27T09:12:06.675Z,27.93
2023-01-27T09:14:34.407Z,27.50
2023-01-27T09:17:01.370Z,28.03
2023-01-27T09:19:28.420Z,26.10
2023-01-27T09:21:55.470Z,24.17
2023-01-27T09:24:22.641Z,24.17
2023-01-27T09:26:49.864Z,24.50
2023-01-27T09:29:16.944Z,23.60
2023-01-27T09:31:44.041Z,24.57
2023-01-27T09:34:11.163Z,25.30
2023-01-27T09:36:45.319Z,24.70
2023-01-27T09:39:13.148Z,23.47
2023-01-27T09:42:01.541Z,23.60
2023-01-27T09:44:42.092Z,23.57
2023-01-27T09:47:41.485Z,23.50
2023-01-27T09:50:48.771Z,24.03
2023-01-27T09:53:47.450Z,20.83
2023-01-27T09:56:38.916Z,22.87
2023-01-27T09:59:35.397Z,20.83
2023-01-27T10:02:28.800Z,22.60
2023-01-27T10:05:27.249Z,21.67
2023-01-27T10:08:47.341Z,21.50
2023-01-27T10:11:42.496Z,22.33
2023-01-27T10:14:24.340Z,21.23
2023-01-27T10:17:38.572Z,19.83
2023-01-27T10:20:23.944Z,20.93
2023-01-27T10:23:35.184Z,22.03
2023-01-27T10:26:36.236Z,20.60
2023-01-27T10:29:16.567Z,19.63
2023-01-27T10:32:08.979Z,18.07
2023-01-27T10:35:11.689Z,19.10
2023-01-27T10:38:19.980Z,19.47
2023-01-27T10:41:01.815Z,18.43
2023-01-27T10:44:35.807Z,20.80
2023-01-27T10:47:03.135Z,21.07
2023-01-27T10:50:00.112Z,19.83
2023-01-27T10:53:04.190Z,20.73
2023-01-27T10:55:53.079Z,22.07
2023-01-27T10:58:55.897Z,21.03
2023-01-27T11:01:43.318Z,21.63
2023-01-27T11:04:46.865Z,22.03
2023-01-27T11:07:20.528Z,22.37
2023-01-27T11:10:02.275Z,22.63
2023-01-27T11:12:38.973Z,22.43
2023-01-27T11:15:33.765Z,24.47
2023-01-27T11:18:25.528Z,24.53
2023-01-27T11:21:09.790Z,24.83
2023-01-27T11:23:49.104Z,27.20
2023-01-27T11:26:39.553Z,27.07
2023-01-27T11:29:36.258Z,26.43
2023-01-27T11:32:21.181Z,27.03
2023-01-27T11:35:12.583Z,26.57
2023-01-27T11:37:47.538Z,24.57
2023-01-27T11:40:23.238Z,23.43
2023-01-27T11:42:51.888Z,23.27
2023-01-27T11:45:21.308Z,22.93
2023-01-27T11:47:55.618Z,23.23
2023-01-27T11:50:26.257Z,24.20
2023-01-27T11:53:32.200Z,24.33
2023-01-27T11:56:08.509Z,26.73
2023-01-27T11:59:05.484Z,24.67
2023-01-27T12:01:59.895Z,25.30
2023-01-27T12:04:39.212Z,26.83
2023-01-27T12:07:31.967Z,26.50
2023-01-27T12:09:58.958Z,26.10
2023-01-27T12:12:27.971Z,25.50
2023-01-27T12:15:00.525Z,27.53
2023-01-27T12:17:43.309Z,24.90
2023-01-27T12:20:22.257Z,25.37
2023-01-27T12:22:59.654Z,25.60
2023-01-27T12:25:31.758Z,24.70
2023-01-27T12:28:02.810Z,24.90
2023-01-27T12:30:37.267Z,23.93
2023-01-27T12:33:30.015Z,23.53
2023-01-27T12:36:03.660Z,25.10
2023-01-27T12:38:35.856Z,23.60
2023-01-27T12:41:08.400Z,24.80
2023-01-27T12:43:54.796Z,24.87
2023-01-27T12:46:24.864Z,25.70
2023-01-27T12:49:00.118Z,25.13
2023-01-27T12:51:48.380Z,25.80
2023-01-27T12:54:34.842Z,24.97
2023-01-27T12:57:14.303Z,25.67
2023-01-27T12:59:54.928Z,25.90
2023-01-27T13:02:31.107Z,26.67
2023-01-27T13:05:05.870Z,28.23
2023-01-27T13:07:46.971Z,26.20
2023-01-27T13:10:23.792Z,25.80
2023-01-27T13:12:57.531Z,25.03
2023-01-27T13:15:28.990Z,26.77
2023-01-27T13:17:58.995Z,25.53
2023-01-27T13:20:32.183Z,26.77
2023-01-27T13:23:19.567Z,28.30
2023-01-27T13:26:04.584Z,26.87
2023-01-27T13:28:52.120Z,27.87
2023-01-27T13:31:56.907Z,29.13
2023-01-27T13:34:53.477Z,30.27
2023-01-27T13:37:42.099Z,28.70
2023-01-27T13:40:27.754Z,28.63
2023-01-27T13:43:23.557Z,28.93
2023-01-27T13:46:22.020Z,28.47
2023-01-27T13:48:59.755Z,30.00
2023-01-27T13:51:31.162Z,30.27
2023-01-27T13:54:02.596Z,29.53
2023-01-27T13:56:57.446Z,28.23
2023-01-27T13:59:49.492Z,29.67
2023-01-27T14:03:04.114Z,30.87
2023-01-27T14:05:56.830Z,29.57
2023-01-27T14:09:03.259Z,28.37
2023-01-27T14:11:44.584Z,29.23
2023-01-27T14:14:37.264Z,29.73
2023-01-27T14:17:26.665Z,30.63
2023-01-27T14:20:05.266Z,29.90
2023-01-27T14:22:47.010Z,29.70
2023-01-27T14:25:39.125Z,28.73
2023-01-27T14:28:22.290Z,29.50
2023-01-27T14:31:11.389Z,29.43
2023-01-27T14:34:01.716Z,31.30
2023-01-27T14:36:53.814Z,29.93
2023-01-27T14:39:37.312Z,28.97
2023-01-27T14:42:14.267Z,29.77
2023-01-27T14:45:30.500Z,28.93
2023-01-27T14:48:27.915Z,29.67
2023-01-27T14:51:37.743Z,29.27
2023-01-27T14:54:44.948Z,29.37
2023-01-27T14:57:55.824Z,31.33
2023-01-27T15:01:10.393Z,30.47
2023-01-27T15:04:00.797Z,31.17
2023-01-27T15:06:45.276Z,30.57
2023-01-27T15:09:34.598Z,30.10
2023-01-27T15:12:26.505Z,30.80
2023-01-27T15:15:32.283Z,30.63
2023-01-27T15:18:26.348Z,33.50
2023-01-27T15:21:33.715Z,30.43
2023-01-27T15:24:38.629Z,31.57
2023-01-27T15:27:08.056Z,32.30
2023-01-27T15:29:35.262Z,33.30
2023-01-27T15:32:14.085Z,35.07
2023-01-27T15:34:44.397Z,33.60
2023-01-27T15:37:20.242Z,34.13
2023-01-27T15:40:17.013Z,35.77
2023-01-27T15:43:05.154Z,34.73
2023-01-27T15:45:43.704Z,34.83
2023-01-27T15:48:12.869Z,34.30
2023-01-27T15:50:53.940Z,33.03
2023-01-27T15:53:32.338Z,34.53
2023-01-27T15:56:01.901Z,35.10
2023-01-27T15:59:03.507Z,33.17
2023-01-27T16:01:34.593Z,34.80
2023-01-27T16:04:21.799Z,33.80
2023-01-27T16:06:51.749Z,33.40
2023-01-27T16:09:45.585Z,34.03
2023-01-27T16:12:27.426Z,32.33
2023-01-27T16:15:19.206Z,33.70
2023-01-27T16:18:07.374Z,32.63
2023-01-27T16:21:06.853Z,34.27
2023-01-27T16:23:48.875Z,33.17
2023-01-27T16:26:59.823Z,34.77
2023-01-27T16:29:48.820Z,34.50
2023-01-27T16:32:22.438Z,35.03
2023-01-27T16:34:58.170Z,34.70
2023-01-27T16:37:36.739Z,33.40
2023-01-27T16:40:22.985Z,34.33
2023-01-27T16:42:52.993Z,35.60
2023-01-27T16:45:29.119Z,34.30
2023-01-27T16:48:06.733Z,33.40
2023-01-27T16:50:36.409Z,33.10
2023-01-27T16:53:08.302Z,33.67
2023-01-27T16:55:35.465Z,34.83
2023-01-27T16:58:03.199Z,32.57
2023-01-27T17:00:36.420Z,33.33
2023-01-27T17:03:15.249Z,32.90
2023-01-27T17:05:43.857Z,33.27
2023-01-27T17:08:27.934Z,34.43
2023-01-27T17:11:04.845Z,34.30
2023-01-27T17:13:46.419Z,34.47
2023-01-27T17:16:29.836Z,34.40
2023-01-27T17:19:07.912Z,34.63
2023-01-27T17:21:41.520Z,33.53
2023-01-27T17:24:32.914Z,33.23
2023-01-27T17:27:21.508Z,31.33
2023-01-27T17:29:51.845Z,33.03
2023-01-27T17:32:41.997Z,32.57
2023-01-27T17:35:25.560Z,30.80
2023-01-27T17:37:53.177Z,31.90
2023-01-27T17:40:23.052Z,29.30
2023-01-27T17:42:50.526Z,29.00
2023-01-27T17:45:32.177Z,29.57
2023-01-27T17:48:01.085Z,28.37
2023-01-27T17:50:37.364Z,28.70
2023-01-27T17:53:12.357Z,29.93
2023-01-27T17:55:40.235Z,29.67
2023-01-27T17:58:17.061Z,28.67
2023-01-27T18:00:46.205Z,27.67
2023-01-27T18:03:36.051Z,27.33
2023-01-27T18:06:06.514Z,28.20
2023-01-27T18:08:35.457Z,27.37
2023-01-27T18:11:31.383Z,25.63
2023-01-27T18:14:14.212Z,25.73
2023-01-27T18:16:41.293Z,24.60
2023-01-27T18:19:23.708Z,24.67
2023-01-27T18:22:11.159Z,24.73
2023-01-27T18:24:40.396Z,23.13
2023-01-27T18:27:22.953Z,22.83
2023-01-27T18:29:56.117Z,23.03
2023-01-27T18:32:24.769Z,23.17
2023-01-27T18:34:56.389Z,21.67
2023-01-27T18:37:34.385Z,22.23
2023-01-27T18:40:21.489Z,21.73
2023-01-27T18:42:53.992Z,21.90
2023-01-27T18:45:21.310Z,21.03
2023-01-27T18:47:48.384Z,23.07
2023-01-27T18:50:18.215Z,22.40
2023-01-27T18:52:46.294Z,22.30
2023-01-27T18:55:29.523Z,21.97
2023-01-27T18:58:00.063Z,22.03
2023-01-27T19:00:42.319Z,22.27
2023-01-27T19:03:19.619Z,21.73
2023-01-27T19:05:48.668Z,20.37
2023-01-27T19:08:22.170Z,21.13
2023-01-27T19:10:50.345Z,21.57
2023-01-27T19:13:18.092Z,20.77
2023-01-27T19:15:53.610Z,20.60
2023-01-27T19:18:38.291Z,21.93
2023-01-27T19:21:05.908Z,19.93
2023-01-27T19:23:33.024Z,20.60
2023-01-27T19:26:03.408Z,20.50
2023-01-27T19:28:38.663Z,20.57
2023-01-27T19:31:07.509Z,19.13
2023-01-27T19:33:37.266Z,19.70
2023-01-27T19:36:24.162Z,20.87
2023-01-27T19:39:22.418Z,20.50
2023-01-27T19:41:49.459Z,19.97
2023-01-27T19:44:16.881Z,21.47
2023-01-27T19:46:44.159Z,20.50
2023-01-27T19:49:19.418Z,20.73
2023-01-27T19:51:46.787Z,20.23
2023-01-27T19:54:13.905Z,19.73
2023-01-27T19:56:40.941Z,21.57
2023-01-27T19:59:09.500Z,21.23
2023-01-27T20:01:36.653Z,21.53
2023-01-27T20:04:03.747Z,21.53
2023-01-27T20:06:31.922Z,20.47
2023-01-27T20:09:03.297Z,20.07
2023-01-27T20:11:38.053Z,21.60
2023-01-27T20:14:13.720Z,22.47
2023-01-27T20:16:42.002Z,22.20
2023-01-27T20:19:09.218Z,21.40
2023-01-27T20:21:36.261Z,23.13
2023-01-27T20:24:03.648Z,22.13
2023-01-27T20:26:31.340Z,22.50
2023-01-27T20:28:59.197Z,21.70
2023-01-27T20:31:26.899Z,21.60
2023-01-27T20:33:53.965Z,23.07
2023-01-27T20:36:23.705Z,21.97
2023-01-27T20:38:51.802Z,23.23
2023-01-27T20:41:22.329Z,21.53
2023-01-27T20:43:54.108Z,22.17
2023-01-27T20:46:21.123Z,22.03
2023-01-27T20:48:48.236Z,22.77
2023-01-27T20:51:16.478Z,22.43
2023-01-27T20:53:47.876Z,21.40
2023-01-27T20:56:21.396Z,22.67
2023-01-27T20:58:49.178Z,21.53
2023-01-27T21:01:23.416Z,22.77
2023-01-27T21:03:50.899Z,24.33
2023-01-27T21:06:21.581Z,22.77
2023-01-27T21:08:49.585Z,22.93
2023-01-27T21:11:20.089Z,22.67
2023-01-27T21:13:48.716Z,22.27
2023-01-27T21:16:16.057Z,22.23
2023-01-27T21:18:44.255Z,24.97
2023-01-27T21:21:28.027Z,22.07
2023-01-27T21:23:56.142Z,22.50
2023-01-27T21:26:23.776Z,21.90
2023-01-27T21:28:50.937Z,23.60
2023-01-27T21:31:21.783Z,22.47
2023-01-27T21:33:50.198Z,21.83
2023-01-27T21:36:19.333Z,22.43
2023-01-27T21:38:47.247Z,22.43
2023-01-27T21:41:46.127Z,21.80
2023-01-27T21:44:40.414Z,22.67
2023-01-27T21:47:10.481Z,21.73
2023-01-27T21:49:58.333Z,22.83
2023-01-27T21:52:37.578Z,21.67
2023-01-27T21:55:08.284Z,22.33
2023-01-27T21:57:36.259Z,22.13
2023-01-27T22:00:06.658Z,21.70
2023-01-27T22:02:33.723Z,19.57
2023-01-27T22:05:00.757Z,21.07
2023-01-27T22:07:30.446Z,20.57
2023-01-27T22:09:57.434Z,19.93
2023-01-27T22:12:24.404Z,20.90
2023-01-27T22:14:51.410Z,22.20
2023-01-27T22:17:19.961Z,20.87
2023-01-27T22:19:47.165Z,21.20
2023-01-27T22:22:14.517Z,21.83
2023-01-27T22:24:41.787Z,22.00
2023-01-27T22:27:08.769Z,20.90
2023-01-27T22:29:35.820Z,20.70
2023-01-27T22:32:03.310Z,19.93
2023-01-27T22:34:30.322Z,19.17
2023-01-27T22:36:57.323Z,20.20
2023-01-27T22:39:24.573Z,18.77
2023-01-27T22:41:51.672Z,20.73
2023-01-27T22:44:18.948Z,20.30
2023-01-27T22:46:49.051Z,20.47
2023-01-27T22:49:16.468Z,21.00
2023-01-27T22:51:43.498Z,19.57
2023-01-27T22:54:10.763Z,20.07
2023-01-27T22:56:37.845Z,20.73
2023-01-27T22:59:05.180Z,20.03
2023-01-27T23:01:32.478Z,19.57
2023-01-27T23:03:59.601Z,21.23
2023-01-27T23:06:26.623Z,20.50
2023-01-27T23:08:53.681Z,19.47
2023-01-27T23:11:20.666Z,19.93
2023-01-27T23:13:47.897Z,19.37
2023-01-27T23:16:15.072Z,18.40
2023-01-27T23:18:42.096Z,20.87
2023-01-27T23:21:09.254Z,20.83
2023-01-27T23:23:36.657Z,21.17
2023-01-27T23:26:07.964Z,21.00
2023-01-27T23:28:37.794Z,20.23
2023-01-27T23:31:09.832Z,19.87
2023-01-27T23:33:39.101Z,19.43
2023-01-27T23:36:08.271Z,20.53
2023-01-27T23:38:36.658Z,20.50
2023-01-27T23:41:13.591Z,20.17
2023-01-27T23:43:40.748Z,19.13
2023-01-27T23:46:07.775Z,22.03
2023-01-27T23:48:34.806Z,21.13
2023-01-27T23:51:08.348Z,21.37
2023-01-27T23:53:35.526Z,20.60
2023-01-27T23:56:02.700Z,20.27
2023-01-27T23:58:29.729Z,21.53
